createdAt,value
2022-08-30T00:00:15.182Z,98499.66
2022-08-30T00:02:21.074Z,98508.34
2022-08-30T00:04:26.448Z,98501.50
2022-08-30T00:06:33.789Z,98504.28
2022-08-30T00:08:40.954Z,98505.19
2022-08-30T00:10:46.099Z,98501.63
2022-08-30T00:12:50.783Z,98493.81
2022-08-30T00:14:56.642Z,98497.28
2022-08-30T00:17:01.219Z,98498.13
2022-08-30T00:19:05.836Z,98495.72
2022-08-30T00:21:10.824Z,98497.00
2022-08-30T00:23:18.461Z,98498.94
2022-08-30T00:25:23.309Z,98499.88
2022-08-30T00:27:27.921Z,98502.22
2022-08-30T00:29:32.594Z,98502.56
2022-08-30T00:31:37.170Z,98501.94
2022-08-30T00:33:42.555Z,98507.22
2022-08-30T00:35:47.348Z,98500.47
2022-08-30T00:37:52.355Z,98505.13
2022-08-30T00:39:59.525Z,98505.56
2022-08-30T00:42:04.245Z,98508.41
2022-08-30T00:44:08.926Z,98503.34
2022-08-30T00:46:13.551Z,98505.84
2022-08-30T00:48:18.227Z,98508.22
2022-08-30T00:50:24.894Z,98504.59
2022-08-30T00:52:29.479Z,98504.50
2022-08-30T00:54:34.967Z,98504.38
2022-08-30T00:56:42.345Z,98505.22
2022-08-30T00:58:48.105Z,98504.59
2022-08-30T01:00:53.378Z,98499.75
2022-08-30T01:02:58.150Z,98502.81
2022-08-30T01:05:04.517Z,98500.00
2022-08-30T01:07:09.146Z,98494.81
2022-08-30T01:09:13.726Z,98498.41
2022-08-30T01:11:20.084Z,98494.94
2022-08-30T01:13:28.536Z,98504.31
2022-08-30T01:15:34.582Z,98503.25
2022-08-30T01:17:41.507Z,98503.13
2022-08-30T01:19:50.532Z,98504.09
2022-08-30T01:21:57.794Z,98498.81
2022-08-30T01:24:05.521Z,98494.50
2022-08-30T01:26:10.389Z,98499.78
2022-08-30T01:28:17.064Z,98502.72
2022-08-30T01:30:24.134Z,98491.56
2022-08-30T01:32:31.550Z,98498.50
2022-08-30T01:34:36.144Z,98500.31
2022-08-30T01:36:44.634Z,98500.31
2022-08-30T01:38:50.919Z,98503.06
2022-08-30T01:41:02.472Z,98498.63
2022-08-30T01:43:07.045Z,98502.13
2022-08-30T01:45:12.244Z,98503.16
2022-08-30T01:47:18.294Z,98506.25
2022-08-30T01:49:23.217Z,98502.78
2022-08-30T01:51:33.062Z,98500.13
2022-08-30T01:53:37.735Z,98504.56
2022-08-30T01:55:42.574Z,98510.56
2022-08-30T01:57:49.903Z,98509.72
2022-08-30T01:59:54.444Z,98506.97
2022-08-30T02:01:59.498Z,98507.06
2022-08-30T02:04:08.339Z,98490.63
2022-08-30T02:06:14.998Z,98498.75
2022-08-30T02:08:19.584Z,98505.00
2022-08-30T02:10:24.324Z,98501.84
2022-08-30T02:12:30.328Z,98497.28
2022-08-30T02:14:37.760Z,98499.63
2022-08-30T02:16:42.643Z,98500.38
2022-08-30T02:18:48.150Z,98497.59
2022-08-30T02:20:52.956Z,98500.97
2022-08-30T02:23:01.193Z,98499.94
2022-08-30T02:25:06.179Z,98503.41
2022-08-30T02:27:14.751Z,98502.56
2022-08-30T02:29:19.294Z,98495.72
2022-08-30T02:31:26.505Z,98508.34
2022-08-30T02:33:31.795Z,98492.75
2022-08-30T02:35:36.373Z,98505.94
2022-08-30T02:37:40.901Z,98492.75
2022-08-30T02:39:45.638Z,98497.19
2022-08-30T02:41:50.185Z,98499.94
2022-08-30T02:43:58.516Z,98506.91
2022-08-30T02:46:03.198Z,98511.31
2022-08-30T02:48:10.533Z,98514.78
2022-08-30T02:50:16.079Z,98503.41
2022-08-30T02:52:20.787Z,98501.00
2022-08-30T02:54:33.475Z,98505.72
2022-08-30T02:56:38.177Z,98499.00
2022-08-30T02:58:43.455Z,98509.97
2022-08-30T03:00:48.066Z,98502.16
2022-08-30T03:02:55.405Z,98502.44
2022-08-30T03:05:03.385Z,98501.72
2022-08-30T03:07:08.322Z,98495.75
2022-08-30T03:09:12.961Z,98498.59
2022-08-30T03:11:17.539Z,98496.19
2022-08-30T03:13:22.300Z,98509.56
2022-08-30T03:15:27.266Z,98503.56
2022-08-30T03:17:31.842Z,98501.97
2022-08-30T03:19:36.697Z,98497.63
2022-08-30T03:21:43.899Z,98498.69
2022-08-30T03:23:48.627Z,98499.75
2022-08-30T03:25:53.580Z,98502.06
2022-08-30T03:27:58.573Z,98498.88
2022-08-30T03:30:03.224Z,98500.13
2022-08-30T03:32:08.130Z,98503.06
2022-08-30T03:34:13.579Z,98501.47
2022-08-30T03:36:18.191Z,98501.28
2022-08-30T03:38:26.252Z,98517.06
2022-08-30T03:40:30.952Z,98511.59
2022-08-30T03:42:36.120Z,98513.47
2022-08-30T03:44:41.082Z,98521.38
2022-08-30T03:46:47.825Z,98515.56
2022-08-30T03:48:52.430Z,98518.31
2022-08-30T03:50:57.135Z,98512.69
2022-08-30T03:53:02.122Z,98522.38
2022-08-30T03:55:09.961Z,98517.13
2022-08-30T03:57:19.879Z,98516.56
2022-08-30T03:59:25.148Z,98515.09
2022-08-30T04:01:29.875Z,98517.06
2022-08-30T04:03:34.579Z,98516.31
2022-08-30T04:05:39.153Z,98514.72
2022-08-30T04:07:43.743Z,98520.06
2022-08-30T04:09:48.477Z,98520.19
2022-08-30T04:11:55.687Z,98524.63
2022-08-30T04:14:00.547Z,98528.28
2022-08-30T04:16:05.506Z,98532.59
2022-08-30T04:18:10.234Z,98529.00
2022-08-30T04:20:14.893Z,98529.00
2022-08-30T04:22:19.494Z,98531.75
2022-08-30T04:24:24.082Z,98527.59
2022-08-30T04:26:29.415Z,98528.75
2022-08-30T04:28:36.943Z,98527.47
2022-08-30T04:30:42.484Z,98540.50
2022-08-30T04:32:47.234Z,98531.66
2022-08-30T04:34:51.857Z,98529.78
2022-08-30T04:36:56.454Z,98534.84
2022-08-30T04:39:01.518Z,98533.94
2022-08-30T04:41:06.828Z,98540.09
2022-08-30T04:43:13.001Z,98539.91
2022-08-30T04:45:20.481Z,98532.22
2022-08-30T04:47:25.086Z,98539.06
2022-08-30T04:49:29.688Z,98543.38
2022-08-30T04:51:34.348Z,98546.00
2022-08-30T04:53:39.250Z,98550.63
2022-08-30T04:55:44.220Z,98548.00
2022-08-30T04:57:48.821Z,98549.72
2022-08-30T04:59:53.493Z,98553.56
2022-08-30T05:02:00.825Z,98558.81
2022-08-30T05:04:07.265Z,98560.59
2022-08-30T05:06:14.102Z,98561.88
2022-08-30T05:08:24.333Z,98558.91
2022-08-30T05:10:29.790Z,98554.41
2022-08-30T05:12:34.366Z,98563.88
2022-08-30T05:14:38.954Z,98558.81
2022-08-30T05:16:44.344Z,98557.31
2022-08-30T05:18:53.011Z,98566.78
2022-08-30T05:21:05.652Z,98565.75
2022-08-30T05:23:10.641Z,98570.00
2022-08-30T05:25:15.315Z,98569.03
2022-08-30T05:27:20.001Z,98563.41
2022-08-30T05:29:24.966Z,98566.69
2022-08-30T05:31:31.550Z,98569.41
2022-08-30T05:33:38.908Z,98566.78
2022-08-30T05:35:46.294Z,98575.03
2022-08-30T05:37:51.019Z,98560.78
2022-08-30T05:39:56.707Z,98557.94
2022-08-30T05:42:01.807Z,98548.50
2022-08-30T05:44:07.469Z,98562.28
2022-08-30T05:46:13.331Z,98550.06
2022-08-30T05:48:18.359Z,98559.84
2022-08-30T05:50:23.492Z,98557.22
2022-08-30T05:52:30.795Z,98576.09
2022-08-30T05:54:35.345Z,98566.97
2022-08-30T05:56:40.890Z,98564.97
2022-08-30T05:58:45.922Z,98571.00
2022-08-30T06:00:50.494Z,98567.91
2022-08-30T06:02:56.325Z,98573.03
2022-08-30T06:05:00.969Z,98566.47
2022-08-30T06:07:05.964Z,98573.00
2022-08-30T06:09:13.669Z,98566.41
2022-08-30T06:11:19.454Z,98571.09
2022-08-30T06:13:24.110Z,98565.22
2022-08-30T06:15:28.723Z,98565.56
2022-08-30T06:17:33.329Z,98558.09
2022-08-30T06:19:37.896Z,98560.31
2022-08-30T06:21:43.162Z,98557.41
2022-08-30T06:23:47.814Z,98561.34
2022-08-30T06:25:55.062Z,98566.38
2022-08-30T06:27:59.605Z,98565.13
2022-08-30T06:30:04.311Z,98574.28
2022-08-30T06:32:08.968Z,98570.81
2022-08-30T06:34:13.562Z,98566.59
2022-08-30T06:36:19.329Z,98566.84
2022-08-30T06:38:23.958Z,98571.69
2022-08-30T06:40:28.619Z,98564.97
2022-08-30T06:42:36.610Z,98559.28
2022-08-30T06:44:45.793Z,98567.50
2022-08-30T06:46:50.739Z,98579.09
2022-08-30T06:48:56.254Z,98569.28
2022-08-30T06:51:01.591Z,98565.06
2022-08-30T06:53:07.475Z,98564.31
2022-08-30T06:55:12.453Z,98559.28
2022-08-30T06:57:17.023Z,98563.91
2022-08-30T06:59:24.250Z,98562.28
2022-08-30T07:01:30.294Z,98565.66
2022-08-30T07:03:34.964Z,98560.78
2022-08-30T07:05:39.598Z,98569.00
2022-08-30T07:07:44.120Z,98569.81
2022-08-30T07:09:48.958Z,98558.72
2022-08-30T07:11:54.138Z,98556.25
2022-08-30T07:13:58.767Z,98562.09
2022-08-30T07:16:11.563Z,98554.00
2022-08-30T07:18:29.240Z,98551.94
2022-08-30T07:20:40.347Z,98549.63
2022-08-30T07:22:45.586Z,98563.31
2022-08-30T07:24:50.334Z,98560.69
2022-08-30T07:26:54.914Z,98553.41
2022-08-30T07:28:59.733Z,98569.25
2022-08-30T07:33:12.229Z,98560.38
2022-08-30T07:35:16.802Z,98563.69
2022-08-30T07:37:21.392Z,98569.03
2022-08-30T07:39:25.956Z,98568.22
2022-08-30T07:41:32.296Z,98565.72
2022-08-30T07:43:36.996Z,98567.31
2022-08-30T07:45:41.944Z,98571.22
2022-08-30T07:47:49.120Z,98569.84
2022-08-30T07:49:53.781Z,98567.53
2022-08-30T07:51:59.416Z,98569.94
2022-08-30T07:54:04.029Z,98573.66
2022-08-30T07:56:08.651Z,98576.06
2022-08-30T07:58:13.266Z,98574.38
2022-08-30T08:00:18.313Z,98579.44
2022-08-30T08:02:23.392Z,98578.72
2022-08-30T08:04:30.577Z,98584.13
2022-08-30T08:06:35.334Z,98588.31
2022-08-30T08:08:40.176Z,98584.81
2022-08-30T08:10:44.891Z,98585.72
2022-08-30T08:12:49.781Z,98586.25
2022-08-30T08:14:57.121Z,98570.16
2022-08-30T08:17:01.756Z,98577.91
2022-08-30T08:19:09.380Z,98570.41
2022-08-30T08:21:16.838Z,98571.38
2022-08-30T08:23:22.106Z,98573.69
2022-08-30T08:25:26.918Z,98574.06
2022-08-30T08:27:31.683Z,98574.53
2022-08-30T08:29:36.229Z,98569.91
2022-08-30T08:31:41.558Z,98570.03
2022-08-30T08:33:46.245Z,98568.16
2022-08-30T08:35:50.864Z,98565.81
2022-08-30T08:37:58.043Z,98566.41
2022-08-30T08:40:02.788Z,98568.75
2022-08-30T08:42:14.930Z,98570.50
2022-08-30T08:44:25.780Z,98561.59
2022-08-30T08:46:33.562Z,98560.84
2022-08-30T08:48:58.971Z,98556.97
2022-08-30T08:51:17.959Z,98555.47
2022-08-30T08:53:47.622Z,98563.56
2022-08-30T08:55:53.061Z,98556.59
2022-08-30T08:57:58.828Z,98556.22
2022-08-30T09:00:03.570Z,98566.13
2022-08-30T09:02:20.598Z,98561.44
2022-08-30T09:04:27.599Z,98558.09
2022-08-30T09:06:45.450Z,98566.25
2022-08-30T09:08:53.204Z,98564.72
2022-08-30T09:11:03.518Z,98565.13
2022-08-30T09:13:08.138Z,98562.75
2022-08-30T09:15:19.968Z,98560.81
2022-08-30T09:17:26.172Z,98560.81
2022-08-30T09:19:35.672Z,98557.91
2022-08-30T09:21:40.336Z,98562.50
2022-08-30T09:23:54.042Z,98558.34
2022-08-30T09:25:59.442Z,98551.81
2022-08-30T09:28:12.282Z,98550.97
2022-08-30T09:30:19.907Z,98554.88
2022-08-30T09:32:28.390Z,98551.66
2022-08-30T09:34:35.788Z,98552.75
2022-08-30T09:36:43.901Z,98551.75
2022-08-30T09:38:48.796Z,98544.72
2022-08-30T09:40:57.634Z,98543.44
2022-08-30T09:43:08.211Z,98539.50
2022-08-30T09:45:20.582Z,98546.50
2022-08-30T09:47:31.417Z,98540.13
2022-08-30T09:49:39.286Z,98533.59
2022-08-30T09:51:50.142Z,98536.22
2022-08-30T09:54:17.058Z,98540.13
2022-08-30T09:56:34.037Z,98531.38
2022-08-30T09:58:54.140Z,98536.81
2022-08-30T10:01:01.409Z,98530.44
2022-08-30T10:03:10.580Z,98527.19
2022-08-30T10:05:19.594Z,98524.75
2022-08-30T10:07:28.968Z,98523.50
2022-08-30T10:09:37.177Z,98526.94
2022-08-30T10:11:49.577Z,98527.78
2022-08-30T10:14:01.984Z,98527.78
2022-08-30T10:16:13.512Z,98521.41
2022-08-30T10:18:23.720Z,98520.34
2022-08-30T10:20:33.081Z,98517.16
2022-08-30T10:22:40.365Z,98517.75
2022-08-30T10:24:47.812Z,98511.31
2022-08-30T10:26:56.483Z,98524.97
2022-08-30T10:29:03.625Z,98511.03
2022-08-30T10:31:10.605Z,98502.59
2022-08-30T10:33:18.227Z,98494.13
2022-08-30T10:35:24.733Z,98499.00
2022-08-30T10:37:30.292Z,98494.13
2022-08-30T10:39:38.156Z,98482.38
2022-08-30T10:41:43.186Z,98487.91
2022-08-30T10:43:54.628Z,98480.59
2022-08-30T10:46:02.744Z,98476.81
2022-08-30T10:48:12.181Z,98477.03
2022-08-30T10:50:21.429Z,98479.25
2022-08-30T10:52:32.669Z,98471.44
2022-08-30T10:54:40.182Z,98469.09
2022-08-30T10:56:46.224Z,98469.41
2022-08-30T10:58:54.539Z,98480.53
2022-08-30T11:01:06.087Z,98468.25
2022-08-30T11:03:36.393Z,98474.94
2022-08-30T11:05:48.001Z,98466.53
2022-08-30T11:07:56.919Z,98470.19
2022-08-30T11:10:19.858Z,98466.81
2022-08-30T11:12:34.525Z,98464.19
2022-08-30T11:14:43.452Z,98462.91
2022-08-30T11:16:49.785Z,98458.41
2022-08-30T11:18:56.418Z,98464.00
2022-08-30T11:21:15.777Z,98461.53
2022-08-30T11:23:27.206Z,98463.56
2022-08-30T11:25:53.514Z,98451.41
2022-08-30T11:28:02.854Z,98452.56
2022-08-30T11:30:22.240Z,98447.53
2022-08-30T11:32:50.360Z,98443.19
2022-08-30T11:35:04.197Z,98443.88
2022-08-30T11:37:10.440Z,98441.97
2022-08-30T11:39:16.166Z,98445.38
2022-08-30T11:41:34.185Z,98442.59
2022-08-30T11:43:55.668Z,98446.63
2022-08-30T11:46:16.121Z,98438.13
2022-08-30T11:48:36.306Z,98440.69
2022-08-30T11:50:51.174Z,98442.03
2022-08-30T11:53:01.303Z,98440.28
2022-08-30T11:55:29.980Z,98442.97
2022-08-30T11:57:41.597Z,98439.63
2022-08-30T11:59:49.726Z,98436.81
2022-08-30T12:01:54.879Z,98437.34
2022-08-30T12:04:01.123Z,98433.34
2022-08-30T12:06:08.746Z,98429.91
2022-08-30T12:08:14.373Z,98433.44
2022-08-30T12:10:24.661Z,98431.59
2022-08-30T12:12:44.254Z,98430.06
2022-08-30T12:14:54.987Z,98430.44
2022-08-30T12:17:12.201Z,98429.75
2022-08-30T12:19:18.951Z,98430.97
2022-08-30T12:21:43.691Z,98421.13
2022-08-30T12:23:52.043Z,98426.28
2022-08-30T12:26:12.002Z,98421.63
2022-08-30T12:28:18.748Z,98421.13
2022-08-30T12:30:28.747Z,98420.31
2022-08-30T12:32:33.682Z,98427.19
2022-08-30T12:34:39.357Z,98421.81
2022-08-30T12:36:52.832Z,98414.47
2022-08-30T12:39:07.027Z,98414.00
2022-08-30T12:41:13.437Z,98407.13
2022-08-30T12:43:24.851Z,98415.81
2022-08-30T12:45:34.274Z,98414.16
2022-08-30T12:47:45.076Z,98404.59
2022-08-30T12:49:50.674Z,98403.06
2022-08-30T12:51:58.325Z,98410.75
2022-08-30T12:54:08.687Z,98406.53
2022-08-30T12:56:15.728Z,98404.75
2022-08-30T12:58:20.363Z,98407.41
2022-08-30T13:00:27.622Z,98403.09
2022-08-30T13:02:44.774Z,98401.09
2022-08-30T13:04:50.228Z,98402.63
2022-08-30T13:06:58.657Z,98395.75
2022-08-30T13:09:03.235Z,98404.09
2022-08-30T13:11:09.313Z,98398.59
2022-08-30T13:13:13.950Z,98398.94
2022-08-30T13:15:21.476Z,98393.41
2022-08-30T13:17:28.357Z,98396.25
2022-08-30T13:19:35.492Z,98398.75
2022-08-30T13:21:49.624Z,98388.72
2022-08-30T13:23:58.381Z,98386.25
2022-08-30T13:26:04.285Z,98386.75
2022-08-30T13:28:09.869Z,98384.53
2022-08-30T13:30:17.693Z,98386.75
2022-08-30T13:32:22.637Z,98378.41
2022-08-30T13:34:27.250Z,98390.41
2022-08-30T13:36:33.370Z,98383.06
2022-08-30T13:38:38.920Z,98377.75
2022-08-30T13:40:46.218Z,98372.91
2022-08-30T13:42:50.871Z,98371.56
2022-08-30T13:44:56.570Z,98366.38
2022-08-30T13:49:44.282Z,98365.72
2022-08-30T13:52:18.422Z,98366.44
2022-08-30T13:54:15.850Z,98367.41
2022-08-30T13:56:24.782Z,98359.22
2022-08-30T13:58:29.797Z,98364.88
2022-08-30T14:00:37.835Z,98359.69
2022-08-30T14:02:46.661Z,98358.34
2022-08-30T14:04:56.833Z,98346.78
2022-08-30T14:07:21.049Z,98356.97
2022-08-30T14:09:25.913Z,98342.44
2022-08-30T14:11:33.155Z,98344.03
2022-08-30T14:13:38.114Z,98348.81
2022-08-30T14:15:44.183Z,98347.06
2022-08-30T14:17:50.505Z,98337.19
2022-08-30T14:19:55.036Z,98345.94
2022-08-30T14:22:00.022Z,98338.94
2022-08-30T14:24:05.398Z,98337.63
2022-08-30T14:26:14.296Z,98335.00
2022-08-30T14:28:26.084Z,98335.84
2022-08-30T14:30:31.874Z,98338.59
2022-08-30T14:32:38.013Z,98338.28
2022-08-30T14:34:42.563Z,98333.94
2022-08-30T14:36:49.585Z,98331.94
2022-08-30T14:38:54.525Z,98328.72
2022-08-30T14:41:00.862Z,98330.38
2022-08-30T14:43:05.509Z,98327.50
2022-08-30T14:45:13.785Z,98325.06
2022-08-30T14:47:18.349Z,98326.13
2022-08-30T14:49:23.457Z,98322.81
2022-08-30T14:51:27.995Z,98318.44
2022-08-30T14:53:33.483Z,98322.63
2022-08-30T14:55:38.556Z,98318.91
2022-08-30T14:57:43.272Z,98314.16
2022-08-30T14:59:47.876Z,98319.94
2022-08-30T15:01:55.372Z,98311.91
2022-08-30T15:04:00.630Z,98312.44
2022-08-30T15:06:05.405Z,98311.75
2022-08-30T15:08:10.024Z,98310.09
2022-08-30T15:10:15.364Z,98309.28
2022-08-30T15:12:20.227Z,98301.97
2022-08-30T15:14:24.847Z,98300.97
2022-08-30T15:16:30.630Z,98303.16
2022-08-30T15:18:39.242Z,98300.84
2022-08-30T15:20:49.535Z,98303.44
2022-08-30T15:22:54.444Z,98302.44
2022-08-30T15:25:01.675Z,98302.19
2022-08-30T15:27:06.748Z,98293.94
2022-08-30T15:29:11.685Z,98296.25
2022-08-30T15:31:16.518Z,98286.28
2022-08-30T15:33:21.128Z,98288.44
2022-08-30T15:35:28.349Z,98286.50
2022-08-30T15:37:32.960Z,98278.69
2022-08-30T15:39:37.601Z,98275.91
2022-08-30T15:41:45.890Z,98280.78
2022-08-30T15:44:00.010Z,98278.97
2022-08-30T15:46:16.771Z,98268.50
2022-08-30T15:48:21.511Z,98266.69
2022-08-30T15:50:28.901Z,98262.63
2022-08-30T15:52:34.630Z,98261.44
2022-08-30T15:54:39.294Z,98260.88
2022-08-30T15:56:43.974Z,98261.25
2022-08-30T15:58:49.396Z,98253.88
2022-08-30T16:00:57.823Z,98251.47
2022-08-30T16:03:02.460Z,98260.50
2022-08-30T16:05:07.356Z,98260.81
2022-08-30T16:07:14.507Z,98257.47
2022-08-30T16:09:19.477Z,98264.19
2022-08-30T16:11:25.351Z,98267.56
2022-08-30T16:13:30.038Z,98262.59
2022-08-30T16:15:34.651Z,98266.00
2022-08-30T16:17:39.377Z,98261.28
2022-08-30T16:19:43.962Z,98258.00
2022-08-30T16:21:50.868Z,98260.34
2022-08-30T16:23:59.963Z,98262.31
2022-08-30T16:26:04.692Z,98259.84
2022-08-30T16:28:09.443Z,98258.16
2022-08-30T16:30:15.079Z,98254.38
2022-08-30T16:32:20.033Z,98257.16
2022-08-30T16:34:24.664Z,98254.84
2022-08-30T16:36:30.593Z,98255.69
2022-08-30T16:38:35.526Z,98259.44
2022-08-30T16:40:42.791Z,98259.81
2022-08-30T16:42:50.314Z,98254.28
2022-08-30T16:44:55.321Z,98248.63
2022-08-30T16:47:00.360Z,98254.16
2022-08-30T16:49:05.496Z,98243.63
2022-08-30T16:51:12.257Z,98247.78
2022-08-30T16:53:16.942Z,98248.47
2022-08-30T16:55:21.863Z,98244.00
2022-08-30T16:57:29.318Z,98239.34
2022-08-30T16:59:34.445Z,98240.50
2022-08-30T17:01:42.444Z,98245.50
2022-08-30T17:03:48.914Z,98241.34
2022-08-30T17:05:57.200Z,98243.50
2022-08-30T17:08:02.047Z,98242.66
2022-08-30T17:10:08.858Z,98238.84
2022-08-30T17:12:13.597Z,98242.13
2022-08-30T17:14:27.853Z,98237.28
2022-08-30T17:16:33.741Z,98244.97
2022-08-30T17:18:38.565Z,98248.94
2022-08-30T17:20:44.396Z,98246.44
2022-08-30T17:22:49.178Z,98246.91
2022-08-30T17:24:53.927Z,98246.91
2022-08-30T17:26:58.616Z,98256.59
2022-08-30T17:29:03.854Z,98257.06
2022-08-30T17:31:11.255Z,98259.41
2022-08-30T17:33:15.935Z,98262.06
2022-08-30T17:35:22.920Z,98264.50
2022-08-30T17:37:27.532Z,98263.13
2022-08-30T17:39:32.143Z,98265.75
2022-08-30T17:41:37.174Z,98269.91
2022-08-30T17:43:42.123Z,98272.25
2022-08-30T17:45:47.074Z,98276.19
2022-08-30T17:47:56.503Z,98279.81
2022-08-30T17:50:03.604Z,98277.63
2022-08-30T17:52:11.639Z,98280.16
2022-08-30T17:54:17.058Z,98287.78
2022-08-30T17:56:22.401Z,98292.91
2022-08-30T17:58:27.377Z,98286.50
2022-08-30T18:00:31.908Z,98293.31
2022-08-30T18:02:36.609Z,98291.44
2022-08-30T18:04:45.435Z,98305.19
2022-08-30T18:06:50.101Z,98303.97
2022-08-30T18:08:56.405Z,98300.97
2022-08-30T18:11:01.561Z,98308.06
2022-08-30T18:13:06.165Z,98311.03
2022-08-30T18:15:12.282Z,98314.28
2022-08-30T18:17:17.311Z,98313.06
2022-08-30T18:19:21.949Z,98316.19
2022-08-30T18:21:29.145Z,98311.31
2022-08-30T18:23:33.849Z,98320.31
2022-08-30T18:25:38.468Z,98319.38
2022-08-30T18:27:43.063Z,98315.63
2022-08-30T18:29:52.754Z,98325.09
2022-08-30T18:31:57.509Z,98332.94
2022-08-30T18:34:02.835Z,98330.91
2022-08-30T18:36:08.572Z,98328.84
2022-08-30T18:38:15.901Z,98333.75
2022-08-30T18:40:20.843Z,98339.22
2022-08-30T18:42:25.589Z,98340.22
2022-08-30T18:44:33.237Z,98347.66
2022-08-30T18:47:31.902Z,98347.25
2022-08-30T18:49:19.757Z,98349.97
2022-08-30T18:51:25.321Z,98353.75
2022-08-30T18:53:32.927Z,98354.06
2022-08-30T18:55:37.542Z,98349.44
2022-08-30T18:57:42.350Z,98346.56
2022-08-30T18:59:49.334Z,98349.34
2022-08-30T19:01:53.979Z,98356.47
2022-08-30T19:03:58.618Z,98358.72
2022-08-30T19:06:05.035Z,98363.34
2022-08-30T19:08:10.090Z,98359.97
2022-08-30T19:10:21.122Z,98367.25
2022-08-30T19:12:27.617Z,98368.09
2022-08-30T19:14:32.354Z,98360.28
2022-08-30T19:16:37.479Z,98362.69
2022-08-30T19:18:42.906Z,98366.88
2022-08-30T19:20:47.624Z,98369.00
2022-08-30T19:23:08.903Z,98365.50
2022-08-30T19:25:21.034Z,98371.22
2022-08-30T19:27:37.949Z,98368.88
2022-08-30T19:29:45.091Z,98378.53
2022-08-30T19:31:51.655Z,98376.00
2022-08-30T19:33:57.318Z,98376.16
2022-08-30T19:36:02.071Z,98388.72
2022-08-30T19:38:06.691Z,98384.41
2022-08-30T19:40:14.074Z,98385.53
2022-08-30T19:42:21.312Z,98389.28
2022-08-30T19:44:26.286Z,98387.19
2022-08-30T19:46:30.819Z,98388.75
2022-08-30T19:48:43.050Z,98392.38
2022-08-30T19:50:47.844Z,98396.28
2022-08-30T19:52:54.447Z,98394.88
2022-08-30T19:54:59.940Z,98387.44
2022-08-30T19:57:04.642Z,98392.34
2022-08-30T19:59:12.999Z,98389.41
2022-08-30T20:01:33.083Z,98384.53
2022-08-30T20:03:39.835Z,98386.75
2022-08-30T20:05:44.882Z,98384.63
2022-08-30T20:07:51.033Z,98379.88
2022-08-30T20:09:56.208Z,98382.38
2022-08-30T20:12:00.857Z,98386.84
2022-08-30T20:14:06.333Z,98387.41
2022-08-30T20:16:14.424Z,98395.22
2022-08-30T20:18:19.609Z,98395.47
2022-08-30T20:20:25.400Z,98393.09
2022-08-30T20:22:30.673Z,98401.06
2022-08-30T20:26:41.241Z,98395.47
2022-08-30T20:28:45.836Z,98396.41
2022-08-30T20:30:50.513Z,98396.56
2022-08-30T20:32:57.672Z,98397.09
2022-08-30T20:35:02.411Z,98409.53
2022-08-30T20:37:08.299Z,98400.28
2022-08-30T20:39:17.594Z,98399.56
2022-08-30T20:41:23.485Z,98396.91
2022-08-30T20:43:29.047Z,98404.69
2022-08-30T20:45:34.952Z,98401.09
2022-08-30T20:47:40.338Z,98401.63
2022-08-30T20:49:47.582Z,98399.00
2022-08-30T20:51:54.522Z,98396.19
2022-08-30T20:53:59.503Z,98397.88
2022-08-30T20:56:04.116Z,98391.59
2022-08-30T20:58:08.746Z,98403.88
2022-08-30T21:00:14.652Z,98403.03
2022-08-30T21:02:19.771Z,98405.84
2022-08-30T21:04:24.630Z,98403.00
2022-08-30T21:06:35.485Z,98412.91
2022-08-30T21:08:40.378Z,98415.69
2022-08-30T21:10:44.978Z,98410.06
2022-08-30T21:12:49.725Z,98413.44
2022-08-30T21:14:54.483Z,98404.50
2022-08-30T21:16:59.086Z,98400.19
2022-08-30T21:19:04.010Z,98395.94
2022-08-30T21:21:12.571Z,98401.94
2022-08-30T21:23:19.726Z,98398.31
2022-08-30T21:25:24.444Z,98403.91
2022-08-30T21:27:28.967Z,98405.72
2022-08-30T21:29:33.848Z,98410.28
2022-08-30T21:31:40.558Z,98407.50
2022-08-30T21:33:45.449Z,98407.50
2022-08-30T21:36:02.477Z,98416.31
2022-08-30T21:38:09.048Z,98408.47
2022-08-30T21:40:17.302Z,98406.34
2022-08-30T21:42:22.006Z,98408.19
2022-08-30T21:44:27.871Z,98413.59
2022-08-30T21:46:32.935Z,98412.75
2022-08-30T21:48:38.333Z,98415.41
2022-08-30T21:50:43.817Z,98417.34
2022-08-30T21:52:48.393Z,98412.75
2022-08-30T21:54:53.040Z,98417.34
2022-08-30T21:57:02.091Z,98417.34
2022-08-30T21:59:07.125Z,98418.44
2022-08-30T22:01:12.966Z,98416.66
2022-08-30T22:03:17.916Z,98413.00
2022-08-30T22:05:22.647Z,98411.19
2022-08-30T22:07:27.786Z,98415.66
2022-08-30T22:09:32.395Z,98415.78
2022-08-30T22:11:37.760Z,98419.56
2022-08-30T22:13:46.267Z,98424.72
2022-08-30T22:15:52.781Z,98411.72
2022-08-30T22:17:57.425Z,98417.03
2022-08-30T22:20:02.023Z,98415.34
2022-08-30T22:22:07.016Z,98414.63
2022-08-30T22:24:11.811Z,98410.31
2022-08-30T22:26:17.280Z,98408.06
2022-08-30T22:28:22.223Z,98406.38
2022-08-30T22:30:29.390Z,98410.13
2022-08-30T22:32:34.031Z,98412.06
2022-08-30T22:34:38.847Z,98412.06
2022-08-30T22:36:43.521Z,98404.25
2022-08-30T22:38:48.730Z,98411.22
2022-08-30T22:40:54.743Z,98408.94
2022-08-30T22:42:59.652Z,98408.25
2022-08-30T22:45:04.434Z,98405.00
2022-08-30T22:47:11.731Z,98415.81
2022-08-30T22:49:16.404Z,98410.78
2022-08-30T22:51:22.372Z,98408.41
2022-08-30T22:53:26.993Z,98410.47
2022-08-30T22:55:31.593Z,98410.00
2022-08-30T22:57:37.154Z,98416.28
2022-08-30T22:59:41.815Z,98417.25
2022-08-30T23:01:47.286Z,98421.84
2022-08-30T23:03:54.775Z,98420.16
2022-08-30T23:05:59.447Z,98427.50
2022-08-30T23:08:04.016Z,98431.47
2022-08-30T23:10:09.536Z,98421.03
2022-08-30T23:12:14.148Z,98425.75
2022-08-30T23:14:18.783Z,98429.47
2022-08-30T23:16:23.807Z,98422.63
2022-08-30T23:18:28.410Z,98418.31
2022-08-30T23:20:35.623Z,98420.09
2022-08-30T23:22:40.346Z,98421.06
2022-08-30T23:24:57.332Z,98421.06
2022-08-30T23:27:14.988Z,98417.72
2022-08-30T23:29:32.358Z,98411.56
2022-08-30T23:31:49.451Z,98422.31
2022-08-30T23:34:06.515Z,98414.72
2022-08-30T23:36:29.844Z,98416.06
2022-08-30T23:38:46.836Z,98416.22
2022-08-30T23:41:03.963Z,98416.31
2022-08-30T23:43:20.950Z,98417.16
2022-08-30T23:45:38.072Z,98413.56
2022-08-30T23:47:55.105Z,98412.59
2022-08-30T23:50:12.122Z,98410.66
2022-08-30T23:52:31.669Z,98422.09
2022-08-30T23:54:48.780Z,98422.34
2022-08-30T23:57:05.871Z,98424.97
2022-08-30T23:59:22.873Z,98420.31
